createdAt,value
2022-09-05T00:00:11.973Z,17.20
2022-09-05T00:02:54.007Z,17.20
2022-09-05T00:05:59.991Z,17.10
2022-09-05T00:08:56.356Z,17.10
2022-09-05T00:11:40.458Z,17.10
2022-09-05T00:15:14.820Z,17.10
2022-09-05T00:18:11.909Z,17.10
2022-09-05T00:24:33.058Z,17.10
2022-09-05T00:24:43.574Z,17.10
2022-09-05T00:26:56.169Z,17.10
2022-09-05T00:31:08.116Z,17.00
2022-09-05T00:33:00.949Z,17.00
2022-09-05T00:35:54.215Z,16.90
2022-09-05T00:38:33.433Z,16.90
2022-09-05T00:41:12.153Z,16.90
2022-09-05T00:43:45.508Z,16.90
2022-09-05T00:46:19.291Z,16.80
2022-09-05T00:49:00.186Z,16.80
2022-09-05T00:51:38.989Z,16.70
2022-09-05T00:55:03.262Z,16.70
2022-09-05T00:58:09.352Z,16.70
2022-09-05T01:00:53.061Z,16.70
2022-09-05T01:03:53.543Z,16.70
2022-09-05T01:06:38.374Z,16.70
2022-09-05T01:09:22.901Z,16.70
2022-09-05T01:12:10.518Z,16.60
2022-09-05T01:15:01.937Z,16.60
2022-09-05T01:17:52.458Z,16.60
2022-09-05T01:20:46.556Z,16.50
2022-09-05T01:23:50.081Z,16.50
2022-09-05T01:27:00.742Z,16.50
2022-09-05T01:29:44.771Z,16.40
2022-09-05T01:32:33.975Z,16.40
2022-09-05T01:35:36.402Z,16.40
2022-09-05T01:38:15.167Z,16.40
2022-09-05T01:41:17.810Z,16.30
2022-09-05T01:44:06.007Z,16.30
2022-09-05T01:46:45.471Z,16.30
2022-09-05T01:49:25.129Z,16.40
2022-09-05T01:52:26.672Z,16.30
2022-09-05T01:55:32.177Z,16.30
2022-09-05T01:58:14.821Z,16.20
2022-09-05T02:01:25.332Z,16.20
2022-09-05T02:04:07.118Z,16.10
2022-09-05T02:06:54.971Z,16.10
2022-09-05T02:09:58.232Z,16.10
2022-09-05T02:13:02.208Z,16.00
2022-09-05T02:15:59.355Z,16.00
2022-09-05T02:18:44.355Z,16.00
2022-09-05T02:21:28.883Z,15.90
2022-09-05T02:24:14.081Z,15.90
2022-09-05T02:27:08.699Z,15.90
2022-09-05T02:29:50.548Z,15.90
2022-09-05T02:32:25.925Z,15.90
2022-09-05T02:35:04.237Z,15.90
2022-09-05T02:39:05.454Z,15.80
2022-09-05T02:45:02.811Z,15.80
2022-09-05T02:45:21.827Z,15.80
2022-09-05T02:46:46.658Z,15.80
2022-09-05T02:52:16.796Z,15.80
2022-09-05T02:57:28.965Z,15.80
2022-09-05T02:57:41.149Z,15.80
2022-09-05T02:59:08.184Z,15.90
2022-09-05T03:01:55.910Z,15.80
2022-09-05T03:04:35.300Z,15.80
2022-09-05T03:07:19.913Z,15.80
2022-09-05T03:10:32.275Z,15.70
2022-09-05T03:13:54.505Z,15.70
2022-09-05T03:17:14.943Z,15.60
2022-09-05T03:20:40.883Z,15.60
2022-09-05T03:24:03.816Z,15.50
2022-09-05T03:27:10.511Z,15.50
2022-09-05T03:30:13.067Z,15.50
2022-09-05T03:33:30.923Z,15.50
2022-09-05T03:36:41.157Z,15.50
2022-09-05T03:40:15.206Z,15.50
2022-09-05T03:43:17.342Z,15.40
2022-09-05T03:46:13.004Z,15.40
2022-09-05T03:52:13.146Z,15.40
2022-09-05T03:57:11.479Z,15.30
2022-09-05T03:57:15.451Z,15.30
2022-09-05T03:59:06.342Z,15.30
2022-09-05T04:03:30.787Z,15.40
2022-09-05T04:08:16.468Z,15.20
2022-09-05T04:08:28.123Z,15.20
2022-09-05T04:10:37.524Z,15.10
2022-09-05T04:13:17.302Z,15.20
2022-09-05T04:16:01.382Z,15.10
2022-09-05T04:18:39.178Z,15.20
2022-09-05T04:21:15.831Z,15.10
2022-09-05T04:24:01.349Z,15.10
2022-09-05T04:27:01.716Z,15.10
2022-09-05T04:29:47.702Z,15.10
2022-09-05T04:32:34.775Z,15.00
2022-09-05T04:35:26.639Z,15.10
2022-09-05T04:38:06.111Z,15.10
2022-09-05T04:40:43.957Z,15.10
2022-09-05T04:43:25.255Z,15.10
2022-09-05T04:46:01.162Z,15.10
2022-09-05T04:48:39.261Z,15.10
2022-09-05T04:51:29.166Z,15.10
2022-09-05T04:54:30.054Z,15.20
2022-09-05T04:57:13.603Z,15.10
2022-09-05T05:06:02.647Z,15.10
2022-09-05T05:06:03.005Z,15.10
2022-09-05T05:06:16.109Z,15.10
2022-09-05T05:08:52.138Z,15.30
2022-09-05T05:17:54.816Z,15.20
2022-09-05T05:18:07.221Z,15.30
2022-09-05T05:18:14.522Z,15.30
2022-09-05T05:20:40.598Z,15.40
2022-09-05T05:23:17.908Z,15.50
2022-09-05T05:25:53.803Z,15.60
2022-09-05T05:28:32.591Z,15.70
2022-09-05T05:31:14.653Z,16.00
2022-09-05T05:33:49.960Z,16.10
2022-09-05T05:36:25.529Z,16.30
2022-09-05T05:39:05.048Z,16.50
2022-09-05T05:41:44.398Z,16.50
2022-09-05T05:44:16.932Z,16.80
2022-09-05T05:46:59.225Z,16.90
2022-09-05T05:49:49.309Z,16.90
2022-09-05T05:53:05.707Z,16.90
2022-09-05T05:56:04.190Z,17.00
2022-09-05T05:58:59.706Z,17.00
2022-09-05T06:02:26.702Z,17.10
2022-09-05T06:05:27.725Z,17.00
2022-09-05T06:10:58.941Z,17.10
2022-09-05T06:15:04.153Z,17.20
2022-09-05T06:15:50.688Z,17.30
2022-09-05T06:19:11.083Z,17.30
2022-09-05T06:22:21.380Z,17.40
2022-09-05T06:25:44.447Z,17.50
2022-09-05T06:28:25.554Z,17.50
2022-09-05T06:31:30.799Z,17.70
2022-09-05T06:34:33.316Z,17.70
2022-09-05T06:37:19.873Z,17.80
2022-09-05T06:40:09.794Z,17.80
2022-09-05T06:43:05.639Z,17.90
2022-09-05T06:46:55.233Z,17.90
2022-09-05T06:49:29.736Z,17.90
2022-09-05T06:53:16.716Z,18.00
2022-09-05T06:56:29.246Z,18.00
2022-09-05T07:00:00.822Z,18.10
2022-09-05T07:02:58.058Z,18.20
2022-09-05T07:05:44.824Z,18.30
2022-09-05T07:08:36.128Z,18.40
2022-09-05T07:11:16.896Z,18.40
2022-09-05T07:13:59.032Z,18.50
2022-09-05T07:16:47.609Z,18.60
2022-09-05T07:19:29.019Z,18.70
2022-09-05T07:22:45.932Z,18.70
2022-09-05T07:25:11.446Z,18.80
2022-09-05T07:28:26.423Z,18.90
2022-09-05T07:30:51.526Z,18.90
2022-09-05T07:33:22.962Z,19.00
2022-09-05T07:35:55.507Z,19.00
2022-09-05T07:38:38.089Z,19.00
2022-09-05T07:41:25.373Z,19.00
2022-09-05T07:44:00.298Z,19.20
2022-09-05T07:46:33.627Z,19.30
2022-09-05T07:49:07.590Z,19.40
2022-09-05T07:56:54.486Z,19.50
2022-09-05T07:57:01.604Z,19.70
2022-09-05T07:57:51.411Z,19.70
2022-09-05T08:00:26.885Z,19.80
2022-09-05T08:03:00.887Z,19.90
2022-09-05T08:05:43.288Z,20.00
2022-09-05T08:08:19.616Z,20.20
2022-09-05T08:11:24.096Z,20.40
2022-09-05T08:14:43.749Z,20.50
2022-09-05T08:16:56.685Z,20.60
2022-09-05T08:19:54.233Z,20.80
2022-09-05T08:22:31.906Z,20.90
2022-09-05T08:25:15.207Z,21.00
2022-09-05T08:28:06.290Z,21.10
2022-09-05T08:30:44.333Z,21.20
2022-09-05T08:33:21.513Z,21.20
2022-09-05T08:36:01.044Z,21.10
2022-09-05T08:38:35.984Z,21.20
2022-09-05T08:41:30.060Z,21.30
2022-09-05T08:46:37.858Z,21.20
2022-09-05T08:47:26.237Z,21.30
2022-09-05T08:50:29.192Z,21.30
2022-09-05T08:53:36.012Z,21.40
2022-09-05T08:56:10.145Z,21.50
2022-09-05T08:59:28.180Z,21.60
2022-09-05T09:02:44.753Z,21.70
2022-09-05T09:05:14.336Z,21.80
2022-09-05T09:07:54.128Z,21.90
2022-09-05T09:10:50.164Z,22.10
2022-09-05T09:13:37.555Z,22.20
2022-09-05T09:16:15.778Z,22.10
2022-09-05T09:19:09.282Z,22.20
2022-09-05T09:21:54.083Z,22.20
2022-09-05T09:24:39.185Z,22.30
2022-09-05T09:27:24.211Z,22.40
2022-09-05T09:30:14.098Z,22.50
2022-09-05T09:32:47.537Z,22.60
2022-09-05T09:35:23.947Z,22.60
2022-09-05T09:38:36.059Z,22.70
2022-09-05T09:41:39.571Z,22.70
2022-09-05T09:45:27.415Z,22.80
2022-09-05T09:48:56.826Z,22.80
2022-09-05T09:52:02.339Z,23.00
2022-09-05T09:55:23.406Z,23.10
2022-09-05T09:58:22.997Z,23.20
2022-09-05T10:01:02.653Z,23.30
2022-09-05T10:10:38.302Z,23.40
2022-09-05T10:10:50.234Z,23.40
2022-09-05T10:14:49.391Z,23.60
2022-09-05T10:17:44.617Z,23.70
2022-09-05T10:20:39.417Z,23.90
2022-09-05T10:23:58.679Z,23.90
2022-09-05T10:27:13.146Z,24.00
2022-09-05T10:29:57.165Z,24.10
2022-09-05T10:35:09.967Z,24.10
2022-09-05T10:35:37.363Z,24.10
2022-09-05T10:38:15.740Z,24.20
2022-09-05T10:41:21.695Z,24.20
2022-09-05T10:43:51.480Z,24.20
2022-09-05T10:46:50.083Z,24.20
2022-09-05T10:49:27.344Z,24.30
2022-09-05T10:52:19.190Z,24.30
2022-09-05T10:55:21.932Z,24.40
2022-09-05T10:58:14.420Z,24.50
2022-09-05T11:02:22.750Z,24.40
2022-09-05T11:04:14.744Z,24.60
2022-09-05T11:06:55.556Z,24.70
2022-09-05T11:09:47.810Z,24.70
2022-09-05T11:12:42.179Z,24.70
2022-09-05T11:15:29.956Z,24.80
2022-09-05T11:18:04.940Z,24.90
2022-09-05T11:20:53.576Z,25.00
2022-09-05T11:23:32.058Z,25.00
2022-09-05T11:26:07.776Z,25.10
2022-09-05T11:28:59.766Z,25.10
2022-09-05T11:32:42.180Z,25.10
2022-09-05T11:40:04.705Z,25.20
2022-09-05T11:40:10.547Z,25.20
2022-09-05T11:42:21.636Z,25.30
2022-09-05T11:45:39.690Z,25.30
2022-09-05T11:49:01.180Z,25.30
2022-09-05T11:52:17.332Z,25.40
2022-09-05T11:55:22.823Z,25.40
2022-09-05T11:58:45.053Z,25.40
2022-09-05T12:01:41.568Z,25.40
2022-09-05T12:05:49.483Z,25.50
2022-09-05T12:08:06.363Z,25.60
2022-09-05T12:10:53.053Z,25.60
2022-09-05T12:13:42.465Z,25.60
2022-09-05T12:16:45.926Z,25.60
2022-09-05T12:19:31.110Z,25.60
2022-09-05T12:22:27.734Z,25.60
2022-09-05T12:27:41.717Z,25.70
2022-09-05T12:29:32.819Z,25.80
2022-09-05T12:32:52.380Z,26.00
2022-09-05T12:40:44.762Z,26.00
2022-09-05T12:41:39.293Z,26.10
2022-09-05T12:42:09.708Z,26.00
2022-09-05T12:44:37.122Z,26.10
2022-09-05T12:46:33.331Z,26.20
2022-09-05T12:49:08.446Z,26.20
2022-09-05T12:51:46.223Z,26.30
2022-09-05T12:54:34.717Z,26.30
2022-09-05T13:02:27.793Z,26.40
2022-09-05T13:03:03.809Z,26.40
2022-09-05T13:03:40.858Z,26.40
2022-09-05T13:06:04.175Z,26.30
2022-09-05T13:08:52.866Z,26.30
2022-09-05T13:14:56.090Z,26.30
2022-09-05T13:14:57.931Z,26.30
2022-09-05T13:17:31.090Z,26.30
2022-09-05T13:20:04.378Z,26.20
2022-09-05T13:22:38.505Z,26.20
2022-09-05T13:25:26.928Z,26.10
2022-09-05T13:28:02.444Z,26.10
2022-09-05T13:36:42.101Z,25.90
2022-09-05T13:38:04.297Z,26.10
2022-09-05T13:38:11.029Z,26.30
2022-09-05T13:39:28.269Z,26.40
2022-09-05T13:42:03.456Z,26.40
2022-09-05T13:44:41.402Z,26.40
2022-09-05T13:47:29.995Z,26.30
2022-09-05T13:50:22.295Z,26.00
2022-09-05T13:52:58.566Z,25.80
2022-09-05T13:55:45.791Z,25.60
2022-09-05T13:58:26.667Z,25.60
2022-09-05T14:01:34.919Z,25.60
2022-09-05T14:05:06.456Z,25.70
2022-09-05T14:08:17.916Z,25.80
2022-09-05T14:11:45.024Z,25.90
2022-09-05T14:17:54.140Z,26.20
2022-09-05T14:20:49.786Z,26.20
2022-09-05T14:23:27.058Z,26.30
2022-09-05T14:26:05.039Z,26.30
2022-09-05T14:28:46.584Z,26.40
2022-09-05T14:32:59.020Z,26.30
2022-09-05T14:37:55.237Z,26.20
2022-09-05T14:38:14.559Z,26.20
2022-09-05T14:41:45.745Z,26.10
2022-09-05T14:45:11.734Z,26.10
2022-09-05T14:48:20.280Z,26.20
2022-09-05T14:51:25.969Z,26.10
2022-09-05T14:54:01.574Z,26.10
2022-09-05T15:00:12.105Z,26.00
2022-09-05T15:02:48.048Z,25.90
2022-09-05T15:02:54.233Z,26.00
2022-09-05T15:05:35.685Z,25.80
2022-09-05T15:09:36.602Z,25.80
2022-09-05T15:12:21.503Z,25.80
2022-09-05T15:13:58.023Z,25.70
2022-09-05T15:16:26.924Z,25.70
2022-09-05T15:18:56.302Z,25.70
2022-09-05T15:21:33.893Z,25.60
2022-09-05T15:24:16.918Z,25.70
2022-09-05T15:26:55.615Z,25.70
2022-09-05T15:29:27.931Z,25.60
2022-09-05T15:32:17.574Z,25.50
2022-09-05T15:34:46.113Z,25.40
2022-09-05T15:37:33.217Z,25.30
2022-09-05T15:40:07.704Z,25.20
2022-09-05T15:42:55.506Z,25.30
2022-09-05T15:45:29.605Z,25.30
2022-09-05T15:48:16.383Z,25.30
2022-09-05T15:50:51.109Z,25.20
2022-09-05T15:53:27.253Z,25.10
2022-09-05T15:56:00.980Z,25.00
2022-09-05T15:58:54.108Z,24.90
2022-09-05T16:01:58.028Z,24.80
2022-09-05T16:08:29.459Z,24.70
2022-09-05T16:10:38.772Z,24.70
2022-09-05T16:10:49.375Z,24.70
2022-09-05T16:13:15.558Z,24.70
2022-09-05T16:20:33.241Z,24.70
2022-09-05T16:23:20.086Z,24.60
2022-09-05T16:23:28.686Z,24.60
2022-09-05T16:24:58.137Z,24.40
2022-09-05T16:27:43.889Z,24.40
2022-09-05T16:30:21.121Z,24.30
2022-09-05T16:32:54.998Z,24.30
2022-09-05T16:35:26.745Z,24.20
2022-09-05T16:38:08.075Z,24.20
2022-09-05T16:40:43.180Z,24.10
2022-09-05T16:43:19.228Z,24.10
2022-09-05T16:45:58.401Z,24.00
2022-09-05T16:48:45.058Z,24.00
2022-09-05T16:51:35.300Z,23.90
2022-09-05T16:54:14.593Z,23.90
2022-09-05T16:56:48.714Z,23.80
2022-09-05T16:59:21.859Z,23.90
2022-09-05T17:02:08.960Z,23.90
2022-09-05T17:05:05.949Z,23.90
2022-09-05T17:08:01.932Z,23.90
2022-09-05T17:10:41.659Z,23.80
2022-09-05T17:13:15.220Z,23.70
2022-09-05T17:15:52.881Z,23.60
2022-09-05T17:18:27.870Z,23.60
2022-09-05T17:21:06.836Z,23.50
2022-09-05T17:29:19.470Z,23.50
2022-09-05T17:29:42.136Z,23.50
2022-09-05T17:32:53.139Z,23.30
2022-09-05T17:35:42.857Z,23.20
2022-09-05T17:38:49.670Z,23.20
2022-09-05T17:41:55.042Z,23.10
2022-09-05T17:44:30.279Z,23.10
2022-09-05T17:47:15.310Z,23.00
2022-09-05T17:49:46.358Z,22.90
2022-09-05T17:52:22.800Z,22.80
2022-09-05T17:54:55.526Z,22.80
2022-09-05T17:57:42.368Z,22.70
2022-09-05T18:01:07.585Z,22.70
2022-09-05T18:04:16.734Z,22.60
2022-09-05T18:06:59.265Z,22.60
2022-09-05T18:09:58.993Z,22.50
2022-09-05T18:13:12.816Z,22.40
2022-09-05T18:16:10.489Z,22.40
2022-09-05T18:19:29.098Z,22.30
2022-09-05T18:21:49.680Z,22.20
2022-09-05T18:27:43.704Z,22.20
2022-09-05T18:33:54.407Z,22.10
2022-09-05T18:36:34.920Z,22.10
2022-09-05T18:39:43.655Z,22.10
2022-09-05T18:42:25.890Z,22.10
2022-09-05T18:45:01.680Z,22.10
2022-09-05T18:47:51.127Z,22.10
2022-09-05T18:50:32.244Z,22.10
2022-09-05T18:53:08.919Z,22.00
2022-09-05T18:56:12.773Z,22.00
2022-09-05T18:58:51.685Z,21.90
2022-09-05T19:01:29.136Z,21.90
2022-09-05T19:04:06.196Z,21.80
2022-09-05T19:06:45.355Z,21.80
2022-09-05T19:09:26.711Z,21.70
2022-09-05T19:12:35.086Z,21.70
2022-09-05T19:14:57.171Z,21.70
2022-09-05T19:17:37.652Z,21.50
2022-09-05T19:20:32.246Z,21.50
2022-09-05T19:23:10.367Z,21.40
2022-09-05T19:25:44.497Z,21.40
2022-09-05T19:36:45.067Z,21.40
2022-09-05T19:36:48.933Z,21.30
2022-09-05T19:37:05.137Z,21.30
2022-09-05T19:37:29.593Z,21.20
2022-09-05T19:43:39.050Z,21.20
2022-09-05T19:47:36.730Z,21.20
2022-09-05T19:47:39.463Z,21.00
2022-09-05T19:48:27.741Z,21.00
2022-09-05T19:51:16.194Z,21.00
2022-09-05T19:53:48.884Z,20.90
2022-09-05T19:56:38.473Z,20.80
2022-09-05T19:59:18.706Z,20.80
2022-09-05T20:01:48.861Z,20.70
2022-09-05T20:04:18.866Z,20.70
2022-09-05T20:06:50.458Z,20.70
2022-09-05T20:09:21.480Z,20.60
2022-09-05T20:11:52.518Z,20.60
2022-09-05T20:14:26.589Z,20.50
2022-09-05T20:16:58.855Z,20.50
2022-09-05T20:19:32.253Z,20.50
2022-09-05T20:22:17.439Z,20.40
2022-09-05T20:24:56.196Z,20.40
2022-09-05T20:27:28.321Z,20.40
2022-09-05T20:30:00.670Z,20.40
2022-09-05T20:32:38.723Z,20.30
2022-09-05T20:39:08.626Z,20.30
2022-09-05T20:43:11.679Z,20.30
2022-09-05T20:43:29.408Z,20.20
2022-09-05T20:43:57.637Z,20.20
2022-09-05T20:50:44.435Z,20.10
2022-09-05T20:54:16.797Z,20.10
2022-09-05T20:54:20.151Z,20.10
2022-09-05T20:55:39.609Z,20.00
2022-09-05T20:58:13.187Z,19.90
2022-09-05T21:01:20.271Z,20.00
2022-09-05T21:03:40.999Z,19.90
2022-09-05T21:06:23.511Z,19.90
2022-09-05T21:08:55.898Z,19.90
2022-09-05T21:11:34.022Z,19.90
2022-09-05T21:14:06.098Z,19.90
2022-09-05T21:16:44.896Z,19.80
2022-09-05T21:19:34.417Z,19.80
2022-09-05T21:22:05.132Z,19.80
2022-09-05T21:24:33.564Z,19.70
2022-09-05T21:27:18.717Z,19.70
2022-09-05T21:29:58.541Z,19.70
2022-09-05T21:32:41.346Z,19.70
2022-09-05T21:35:34.555Z,19.60
2022-09-05T21:38:01.547Z,19.60
2022-09-05T21:40:29.901Z,19.60
2022-09-05T21:47:39.255Z,19.60
2022-09-05T21:47:50.096Z,19.60
2022-09-05T21:48:37.724Z,19.50
2022-09-05T21:51:10.120Z,19.40
2022-09-05T21:59:00.475Z,19.40
2022-09-05T21:59:24.723Z,19.30
2022-09-05T21:59:41.696Z,19.30
2022-09-05T22:02:16.444Z,19.30
2022-09-05T22:04:47.094Z,19.20
2022-09-05T22:07:31.979Z,19.20
2022-09-05T22:10:03.430Z,19.20
2022-09-05T22:12:35.650Z,19.20
2022-09-05T22:15:26.783Z,19.10
2022-09-05T22:18:02.565Z,19.10
2022-09-05T22:20:53.524Z,19.10
2022-09-05T22:23:37.678Z,19.20
2022-09-05T22:26:06.591Z,19.10
2022-09-05T22:28:46.159Z,19.00
2022-09-05T22:31:16.011Z,19.00
2022-09-05T22:33:44.234Z,19.00
2022-09-05T22:36:18.779Z,18.90
2022-09-05T22:38:47.623Z,18.90
2022-09-05T22:41:15.760Z,18.90
2022-09-05T22:43:46.296Z,18.90
2022-09-05T22:46:15.911Z,18.90
2022-09-05T22:48:43.973Z,18.80
2022-09-05T22:51:12.126Z,18.90
2022-09-05T22:53:40.540Z,18.80
2022-09-05T22:56:09.733Z,18.80
2022-09-05T22:58:39.881Z,18.70
2022-09-05T23:01:09.033Z,18.80
2022-09-05T23:03:38.552Z,18.70
2022-09-05T23:06:10.101Z,18.70
2022-09-05T23:08:38.135Z,18.70
2022-09-05T23:11:09.051Z,18.80
2022-09-05T23:13:37.139Z,18.70
2022-09-05T23:16:05.866Z,18.70
2022-09-05T23:18:34.893Z,18.60
2022-09-05T23:21:06.987Z,18.50
2022-09-05T23:23:36.950Z,18.50
2022-09-05T23:26:09.470Z,18.50
2022-09-05T23:28:42.682Z,18.40
2022-09-05T23:31:13.103Z,18.40
2022-09-05T23:33:42.865Z,18.40
2022-09-05T23:36:14.507Z,18.40
2022-09-05T23:38:43.333Z,18.40
2022-09-05T23:41:15.287Z,18.30
2022-09-05T23:43:44.031Z,18.30
2022-09-05T23:46:12.157Z,18.30
2022-09-05T23:48:40.357Z,18.30
2022-09-05T23:51:12.033Z,18.30
2022-09-05T23:53:40.557Z,18.20
2022-09-05T23:56:12.249Z,18.20
2022-09-05T23:58:40.536Z,18.10
